sensor_id;sensor_type;location;lat;lon;timestamp;temperature;humidity
8988;DHT22;4529;51.360;12.474;2023-08-06T00:02:33;16.90;99.90
8988;DHT22;4529;51.360;12.474;2023-08-06T00:07:37;16.90;99.90
8988;DHT22;4529;51.360;12.474;2023-08-06T00:12:41;16.90;99.90
8988;DHT22;4529;51.360;12.474;2023-08-06T00:17:45;16.80;99.90
8988;DHT22;4529;51.360;12.474;2023-08-06T00:22:49;16.80;99.90
8988;DHT22;4529;51.360;12.474;2023-08-06T00:27:52;16.80;99.90
8988;DHT22;4529;51.360;12.474;2023-08-06T00:32:56;16.80;99.90
8988;DHT22;4529;51.360;12.474;2023-08-06T00:38:00;16.70;99.90
8988;DHT22;4529;51.360;12.474;2023-08-06T00:43:04;16.80;99.90
8988;DHT22;4529;51.360;12.474;2023-08-06T00:48:08;16.80;99.90
8988;DHT22;4529;51.360;12.474;2023-08-06T00:53:11;16.80;99.90
8988;DHT22;4529;51.360;12.474;2023-08-06T00:58:15;16.70;99.90
8988;DHT22;4529;51.360;12.474;2023-08-06T01:03:18;16.70;99.90
8988;DHT22;4529;51.360;12.474;2023-08-06T01:14:03;16.60;99.90
8988;DHT22;4529;51.360;12.474;2023-08-06T01:18:57;16.60;99.90
8988;DHT22;4529;51.360;12.474;2023-08-06T01:24:01;16.70;99.90
8988;DHT22;4529;51.360;12.474;2023-08-06T01:29:25;16.70;99.90
8988;DHT22;4529;51.360;12.474;2023-08-06T01:34:28;16.70;99.90
8988;DHT22;4529;51.360;12.474;2023-08-06T01:39:32;16.80;99.90
8988;DHT22;4529;51.360;12.474;2023-08-06T01:44:34;16.80;99.90
8988;DHT22;4529;51.360;12.474;2023-08-06T01:49:37;16.80;99.90
8988;DHT22;4529;51.360;12.474;2023-08-06T01:54:41;16.80;99.90
8988;DHT22;4529;51.360;12.474;2023-08-06T01:59:44;16.80;99.90
8988;DHT22;4529;51.360;12.474;2023-08-06T02:04:48;16.70;99.90
8988;DHT22;4529;51.360;12.474;2023-08-06T02:09:52;16.70;99.90
8988;DHT22;4529;51.360;12.474;2023-08-06T02:14:55;16.70;99.90
8988;DHT22;4529;51.360;12.474;2023-08-06T02:19:59;16.70;99.90
8988;DHT22;4529;51.360;12.474;2023-08-06T02:25:02;16.70;99.90
8988;DHT22;4529;51.360;12.474;2023-08-06T02:30:06;16.70;99.90
8988;DHT22;4529;51.360;12.474;2023-08-06T02:35:10;16.70;99.90
8988;DHT22;4529;51.360;12.474;2023-08-06T02:40:13;16.70;99.90
8988;DHT22;4529;51.360;12.474;2023-08-06T02:45:17;16.80;99.90
8988;DHT22;4529;51.360;12.474;2023-08-06T02:50:21;16.70;99.90
8988;DHT22;4529;51.360;12.474;2023-08-06T02:55:25;16.70;99.90
8988;DHT22;4529;51.360;12.474;2023-08-06T03:00:29;16.70;99.90
8988;DHT22;4529;51.360;12.474;2023-08-06T03:05:33;16.70;99.90
8988;DHT22;4529;51.360;12.474;2023-08-06T03:10:37;16.70;99.90
8988;DHT22;4529;51.360;12.474;2023-08-06T03:15:41;16.70;99.90
8988;DHT22;4529;51.360;12.474;2023-08-06T03:20:46;16.70;99.90
8988;DHT22;4529;51.360;12.474;2023-08-06T03:25:50;16.70;99.90
8988;DHT22;4529;51.360;12.474;2023-08-06T03:31:02;16.60;99.90
8988;DHT22;4529;51.360;12.474;2023-08-06T03:36:04;16.70;99.90
8988;DHT22;4529;51.360;12.474;2023-08-06T03:41:08;16.60;99.90
8988;DHT22;4529;51.360;12.474;2023-08-06T03:46:11;16.60;99.90
8988;DHT22;4529;51.360;12.474;2023-08-06T03:51:15;16.60;99.90
8988;DHT22;4529;51.360;12.474;2023-08-06T03:56:18;16.60;99.90
8988;DHT22;4529;51.360;12.474;2023-08-06T04:01:22;16.70;99.90
8988;DHT22;4529;51.360;12.474;2023-08-06T04:06:25;16.70;99.90
8988;DHT22;4529;51.360;12.474;2023-08-06T04:11:29;16.60;99.90
8988;DHT22;4529;51.360;12.474;2023-08-06T04:16:32;16.70;99.90
8988;DHT22;4529;51.360;12.474;2023-08-06T04:21:35;16.70;99.90
8988;DHT22;4529;51.360;12.474;2023-08-06T04:26:39;16.70;99.90
8988;DHT22;4529;51.360;12.474;2023-08-06T04:31:42;16.70;99.90
8988;DHT22;4529;51.360;12.474;2023-08-06T04:36:46;16.70;99.90
8988;DHT22;4529;51.360;12.474;2023-08-06T04:41:49;16.70;99.90
8988;DHT22;4529;51.360;12.474;2023-08-06T04:46:53;16.70;99.90
8988;DHT22;4529;51.360;12.474;2023-08-06T04:51:56;16.80;99.90
8988;DHT22;4529;51.360;12.474;2023-08-06T04:57:00;16.80;99.90
8988;DHT22;4529;51.360;12.474;2023-08-06T05:02:03;16.80;99.90
8988;DHT22;4529;51.360;12.474;2023-08-06T05:07:07;16.80;99.90
8988;DHT22;4529;51.360;12.474;2023-08-06T05:12:10;16.90;99.90
8988;DHT22;4529;51.360;12.474;2023-08-06T05:17:14;16.90;99.90
8988;DHT22;4529;51.360;12.474;2023-08-06T05:22:27;16.90;99.90
8988;DHT22;4529;51.360;12.474;2023-08-06T05:27:41;16.90;99.90
8988;DHT22;4529;51.360;12.474;2023-08-06T05:32:45;16.90;99.90
8988;DHT22;4529;51.360;12.474;2023-08-06T05:37:50;17.00;99.90
8988;DHT22;4529;51.360;12.474;2023-08-06T05:42:55;17.00;99.90
8988;DHT22;4529;51.360;12.474;2023-08-06T05:47:58;17.00;99.90
8988;DHT22;4529;51.360;12.474;2023-08-06T05:53:02;17.00;99.90
8988;DHT22;4529;51.360;12.474;2023-08-06T05:58:06;17.00;99.90
8988;DHT22;4529;51.360;12.474;2023-08-06T06:03:10;17.00;99.90
8988;DHT22;4529;51.360;12.474;2023-08-06T06:08:15;17.10;99.90
8988;DHT22;4529;51.360;12.474;2023-08-06T06:13:19;17.20;99.90
8988;DHT22;4529;51.360;12.474;2023-08-06T06:18:23;17.20;99.90
8988;DHT22;4529;51.360;12.474;2023-08-06T06:23:27;17.40;99.90
8988;DHT22;4529;51.360;12.474;2023-08-06T06:28:30;17.30;99.90
8988;DHT22;4529;51.360;12.474;2023-08-06T06:33:34;17.40;99.90
8988;DHT22;4529;51.360;12.474;2023-08-06T06:38:37;17.50;99.90
8988;DHT22;4529;51.360;12.474;2023-08-06T06:43:41;17.50;99.90
8988;DHT22;4529;51.360;12.474;2023-08-06T06:48:44;17.50;99.90
8988;DHT22;4529;51.360;12.474;2023-08-06T06:53:48;17.50;99.90
8988;DHT22;4529;51.360;12.474;2023-08-06T06:58:52;17.50;99.90
8988;DHT22;4529;51.360;12.474;2023-08-06T07:03:56;17.60;99.90
8988;DHT22;4529;51.360;12.474;2023-08-06T07:09:00;17.60;99.90
8988;DHT22;4529;51.360;12.474;2023-08-06T07:14:04;17.70;99.90
8988;DHT22;4529;51.360;12.474;2023-08-06T07:19:08;17.70;99.90
8988;DHT22;4529;51.360;12.474;2023-08-06T07:24:11;17.80;99.90
8988;DHT22;4529;51.360;12.474;2023-08-06T07:29:15;17.90;99.90
8988;DHT22;4529;51.360;12.474;2023-08-06T07:34:18;17.90;99.90
8988;DHT22;4529;51.360;12.474;2023-08-06T07:39:22;17.90;99.90
8988;DHT22;4529;51.360;12.474;2023-08-06T07:44:25;18.00;99.90
8988;DHT22;4529;51.360;12.474;2023-08-06T07:49:29;18.00;99.90
8988;DHT22;4529;51.360;12.474;2023-08-06T07:54:32;18.10;99.90
8988;DHT22;4529;51.360;12.474;2023-08-06T07:59:36;18.10;99.90
8988;DHT22;4529;51.360;12.474;2023-08-06T08:04:39;18.20;99.90
8988;DHT22;4529;51.360;12.474;2023-08-06T08:09:42;18.20;99.90
8988;DHT22;4529;51.360;12.474;2023-08-06T08:14:46;18.20;99.90
8988;DHT22;4529;51.360;12.474;2023-08-06T08:19:50;18.30;99.90
8988;DHT22;4529;51.360;12.474;2023-08-06T08:24:54;18.30;99.90
8988;DHT22;4529;51.360;12.474;2023-08-06T08:29:58;18.30;99.90
8988;DHT22;4529;51.360;12.474;2023-08-06T08:35:03;18.50;99.90
8988;DHT22;4529;51.360;12.474;2023-08-06T08:40:07;18.60;99.90
8988;DHT22;4529;51.360;12.474;2023-08-06T08:45:14;18.60;99.90
8988;DHT22;4529;51.360;12.474;2023-08-06T08:50:17;18.70;99.90
8988;DHT22;4529;51.360;12.474;2023-08-06T08:55:21;18.90;99.90
8988;DHT22;4529;51.360;12.474;2023-08-06T09:00:25;19.00;99.90
8988;DHT22;4529;51.360;12.474;2023-08-06T09:05:40;19.20;99.90
8988;DHT22;4529;51.360;12.474;2023-08-06T09:10:43;19.30;99.90
8988;DHT22;4529;51.360;12.474;2023-08-06T09:15:47;19.50;99.90
8988;DHT22;4529;51.360;12.474;2023-08-06T09:20:52;19.70;99.90
8988;DHT22;4529;51.360;12.474;2023-08-06T09:25:56;19.90;99.90
8988;DHT22;4529;51.360;12.474;2023-08-06T09:31:00;20.10;99.90
8988;DHT22;4529;51.360;12.474;2023-08-06T09:36:13;20.10;99.90
8988;DHT22;4529;51.360;12.474;2023-08-06T09:41:29;20.30;99.90
8988;DHT22;4529;51.360;12.474;2023-08-06T09:46:33;20.40;99.90
8988;DHT22;4529;51.360;12.474;2023-08-06T09:51:37;20.50;99.90
8988;DHT22;4529;51.360;12.474;2023-08-06T09:56:42;20.60;99.90
8988;DHT22;4529;51.360;12.474;2023-08-06T10:01:46;20.40;99.90
8988;DHT22;4529;51.360;12.474;2023-08-06T10:07:00;20.40;99.90
8988;DHT22;4529;51.360;12.474;2023-08-06T10:12:04;20.40;99.90
8988;DHT22;4529;51.360;12.474;2023-08-06T10:17:08;20.50;99.90
8988;DHT22;4529;51.360;12.474;2023-08-06T10:22:16;20.50;99.90
8988;DHT22;4529;51.360;12.474;2023-08-06T10:27:32;20.60;99.90
8988;DHT22;4529;51.360;12.474;2023-08-06T10:32:47;20.60;99.90
8988;DHT22;4529;51.360;12.474;2023-08-06T10:37:50;20.70;99.90
8988;DHT22;4529;51.360;12.474;2023-08-06T10:42:53;20.90;99.90
8988;DHT22;4529;51.360;12.474;2023-08-06T10:47:57;20.90;99.90
8988;DHT22;4529;51.360;12.474;2023-08-06T10:53:03;21.00;99.90
8988;DHT22;4529;51.360;12.474;2023-08-06T10:58:05;21.40;99.90
8988;DHT22;4529;51.360;12.474;2023-08-06T11:03:09;21.50;99.90
8988;DHT22;4529;51.360;12.474;2023-08-06T11:08:22;21.60;99.90
8988;DHT22;4529;51.360;12.474;2023-08-06T11:13:22;21.60;99.90
8988;DHT22;4529;51.360;12.474;2023-08-06T11:18:23;21.80;99.90
8988;DHT22;4529;51.360;12.474;2023-08-06T11:23:28;21.80;99.90
8988;DHT22;4529;51.360;12.474;2023-08-06T11:28:31;21.80;99.90
8988;DHT22;4529;51.360;12.474;2023-08-06T11:33:34;22.00;99.90
8988;DHT22;4529;51.360;12.474;2023-08-06T11:38:38;22.20;99.90
8988;DHT22;4529;51.360;12.474;2023-08-06T11:43:45;22.20;99.90
8988;DHT22;4529;51.360;12.474;2023-08-06T11:48:57;22.30;99.90
8988;DHT22;4529;51.360;12.474;2023-08-06T11:54:00;22.50;99.90
8988;DHT22;4529;51.360;12.474;2023-08-06T11:59:05;22.40;99.90
8988;DHT22;4529;51.360;12.474;2023-08-06T12:04:08;22.40;99.90
8988;DHT22;4529;51.360;12.474;2023-08-06T12:09:12;22.30;99.90
8988;DHT22;4529;51.360;12.474;2023-08-06T12:14:15;22.30;99.90
8988;DHT22;4529;51.360;12.474;2023-08-06T12:19:23;22.30;99.90
8988;DHT22;4529;51.360;12.474;2023-08-06T12:24:27;22.30;99.90
8988;DHT22;4529;51.360;12.474;2023-08-06T12:29:30;22.20;99.90
8988;DHT22;4529;51.360;12.474;2023-08-06T12:34:34;22.30;99.90
8988;DHT22;4529;51.360;12.474;2023-08-06T12:39:37;22.40;99.90
8988;DHT22;4529;51.360;12.474;2023-08-06T12:44:41;22.40;99.90
8988;DHT22;4529;51.360;12.474;2023-08-06T12:49:44;22.40;99.90
8988;DHT22;4529;51.360;12.474;2023-08-06T12:54:48;22.50;99.90
8988;DHT22;4529;51.360;12.474;2023-08-06T12:59:51;22.60;99.90
8988;DHT22;4529;51.360;12.474;2023-08-06T13:04:55;22.60;99.90
8988;DHT22;4529;51.360;12.474;2023-08-06T13:09:58;22.50;99.90
8988;DHT22;4529;51.360;12.474;2023-08-06T13:15:02;22.60;99.90
8988;DHT22;4529;51.360;12.474;2023-08-06T13:20:05;22.60;99.90
8988;DHT22;4529;51.360;12.474;2023-08-06T13:25:09;22.60;99.90
8988;DHT22;4529;51.360;12.474;2023-08-06T13:30:14;22.50;99.90
8988;DHT22;4529;51.360;12.474;2023-08-06T13:35:18;22.30;99.90
8988;DHT22;4529;51.360;12.474;2023-08-06T13:40:22;22.30;99.90
8988;DHT22;4529;51.360;12.474;2023-08-06T13:45:26;22.20;99.90
8988;DHT22;4529;51.360;12.474;2023-08-06T13:50:30;22.20;99.90
8988;DHT22;4529;51.360;12.474;2023-08-06T13:55:33;22.20;99.90
8988;DHT22;4529;51.360;12.474;2023-08-06T14:00:37;22.20;99.90
8988;DHT22;4529;51.360;12.474;2023-08-06T14:05:41;22.30;99.90
8988;DHT22;4529;51.360;12.474;2023-08-06T14:10:45;22.60;99.90
8988;DHT22;4529;51.360;12.474;2023-08-06T14:15:50;22.80;99.90
8988;DHT22;4529;51.360;12.474;2023-08-06T14:20:53;22.80;99.90
8988;DHT22;4529;51.360;12.474;2023-08-06T14:25:57;22.90;99.90
8988;DHT22;4529;51.360;12.474;2023-08-06T14:31:01;22.90;99.90
8988;DHT22;4529;51.360;12.474;2023-08-06T14:36:05;22.70;99.90
8988;DHT22;4529;51.360;12.474;2023-08-06T14:41:10;22.80;99.90
8988;DHT22;4529;51.360;12.474;2023-08-06T14:46:13;22.80;99.90
8988;DHT22;4529;51.360;12.474;2023-08-06T14:51:16;22.80;99.90
8988;DHT22;4529;51.360;12.474;2023-08-06T14:56:20;23.00;99.90
8988;DHT22;4529;51.360;12.474;2023-08-06T15:01:25;23.10;99.90
8988;DHT22;4529;51.360;12.474;2023-08-06T15:06:28;23.10;99.90
8988;DHT22;4529;51.360;12.474;2023-08-06T15:11:32;23.00;99.90
8988;DHT22;4529;51.360;12.474;2023-08-06T15:16:35;23.00;99.90
8988;DHT22;4529;51.360;12.474;2023-08-06T15:21:39;23.00;99.90
8988;DHT22;4529;51.360;12.474;2023-08-06T15:26:42;23.00;99.90
8988;DHT22;4529;51.360;12.474;2023-08-06T15:31:46;22.80;99.90
8988;DHT22;4529;51.360;12.474;2023-08-06T15:36:50;22.60;99.90
8988;DHT22;4529;51.360;12.474;2023-08-06T15:41:53;22.60;99.90
8988;DHT22;4529;51.360;12.474;2023-08-06T15:46:57;22.20;99.90
8988;DHT22;4529;51.360;12.474;2023-08-06T15:52:00;21.90;99.90
8988;DHT22;4529;51.360;12.474;2023-08-06T15:57:04;21.70;99.90
8988;DHT22;4529;51.360;12.474;2023-08-06T16:02:07;21.40;99.90
8988;DHT22;4529;51.360;12.474;2023-08-06T16:07:11;21.30;99.90
8988;DHT22;4529;51.360;12.474;2023-08-06T16:12:14;21.30;99.90
8988;DHT22;4529;51.360;12.474;2023-08-06T16:17:18;21.40;99.90
8988;DHT22;4529;51.360;12.474;2023-08-06T16:22:22;21.40;99.90
8988;DHT22;4529;51.360;12.474;2023-08-06T16:27:26;21.30;99.90
8988;DHT22;4529;51.360;12.474;2023-08-06T16:32:40;21.30;99.90
8988;DHT22;4529;51.360;12.474;2023-08-06T16:37:54;21.20;99.90
8988;DHT22;4529;51.360;12.474;2023-08-06T16:42:58;21.20;99.90
8988;DHT22;4529;51.360;12.474;2023-08-06T16:48:01;21.10;99.90
8988;DHT22;4529;51.360;12.474;2023-08-06T16:53:05;21.00;99.90
8988;DHT22;4529;51.360;12.474;2023-08-06T16:58:08;20.90;99.90
8988;DHT22;4529;51.360;12.474;2023-08-06T17:03:13;20.80;99.90
8988;DHT22;4529;51.360;12.474;2023-08-06T17:08:15;20.70;99.90
8988;DHT22;4529;51.360;12.474;2023-08-06T17:13:19;20.60;99.90
8988;DHT22;4529;51.360;12.474;2023-08-06T17:18:22;20.20;99.90
8988;DHT22;4529;51.360;12.474;2023-08-06T17:23:26;19.80;99.90
8988;DHT22;4529;51.360;12.474;2023-08-06T17:28:29;19.50;99.90
8988;DHT22;4529;51.360;12.474;2023-08-06T17:33:32;19.30;99.90
8988;DHT22;4529;51.360;12.474;2023-08-06T17:38:36;19.30;99.90
8988;DHT22;4529;51.360;12.474;2023-08-06T17:43:39;19.30;99.90
8988;DHT22;4529;51.360;12.474;2023-08-06T17:48:43;19.20;99.90
8988;DHT22;4529;51.360;12.474;2023-08-06T17:53:46;19.20;99.90
8988;DHT22;4529;51.360;12.474;2023-08-06T17:58:50;18.80;99.90
8988;DHT22;4529;51.360;12.474;2023-08-06T18:03:55;18.60;99.90
8988;DHT22;4529;51.360;12.474;2023-08-06T18:08:59;18.40;99.90
8988;DHT22;4529;51.360;12.474;2023-08-06T18:14:03;18.40;99.90
8988;DHT22;4529;51.360;12.474;2023-08-06T18:19:07;18.30;99.90
8988;DHT22;4529;51.360;12.474;2023-08-06T18:24:11;18.20;99.90
8988;DHT22;4529;51.360;12.474;2023-08-06T18:29:15;18.20;99.90
8988;DHT22;4529;51.360;12.474;2023-08-06T18:34:18;18.10;99.90
8988;DHT22;4529;51.360;12.474;2023-08-06T18:39:22;18.00;99.90
8988;DHT22;4529;51.360;12.474;2023-08-06T18:44:26;17.90;99.90
8988;DHT22;4529;51.360;12.474;2023-08-06T18:49:30;17.80;99.90
8988;DHT22;4529;51.360;12.474;2023-08-06T18:54:35;17.80;99.90
8988;DHT22;4529;51.360;12.474;2023-08-06T18:59:39;17.70;99.90
8988;DHT22;4529;51.360;12.474;2023-08-06T19:04:43;17.70;99.90
8988;DHT22;4529;51.360;12.474;2023-08-06T19:09:46;17.70;99.90
8988;DHT22;4529;51.360;12.474;2023-08-06T19:14:50;17.70;99.90
8988;DHT22;4529;51.360;12.474;2023-08-06T19:20:04;17.70;99.90
8988;DHT22;4529;51.360;12.474;2023-08-06T19:25:20;17.70;99.90
8988;DHT22;4529;51.360;12.474;2023-08-06T19:30:23;17.60;99.90
8988;DHT22;4529;51.360;12.474;2023-08-06T19:35:27;17.50;99.90
8988;DHT22;4529;51.360;12.474;2023-08-06T19:40:32;17.50;99.90
8988;DHT22;4529;51.360;12.474;2023-08-06T19:45:36;17.50;99.90
8988;DHT22;4529;51.360;12.474;2023-08-06T19:50:50;17.50;99.90
8988;DHT22;4529;51.360;12.474;2023-08-06T19:55:51;17.50;99.90
8988;DHT22;4529;51.360;12.474;2023-08-06T20:00:56;17.20;99.90
8988;DHT22;4529;51.360;12.474;2023-08-06T20:06:04;17.10;99.90
8988;DHT22;4529;51.360;12.474;2023-08-06T20:11:06;17.10;99.90
8988;DHT22;4529;51.360;12.474;2023-08-06T20:16:21;17.00;99.90
8988;DHT22;4529;51.360;12.474;2023-08-06T20:21:25;16.90;99.90
8988;DHT22;4529;51.360;12.474;2023-08-06T20:26:29;16.90;99.90
8988;DHT22;4529;51.360;12.474;2023-08-06T20:31:33;16.80;99.90
8988;DHT22;4529;51.360;12.474;2023-08-06T20:36:37;16.80;99.90
8988;DHT22;4529;51.360;12.474;2023-08-06T20:41:41;16.80;99.90
8988;DHT22;4529;51.360;12.474;2023-08-06T20:46:45;16.70;99.90
8988;DHT22;4529;51.360;12.474;2023-08-06T20:51:50;16.70;99.90
8988;DHT22;4529;51.360;12.474;2023-08-06T20:56:54;16.70;99.90
8988;DHT22;4529;51.360;12.474;2023-08-06T21:01:58;16.60;99.90
8988;DHT22;4529;51.360;12.474;2023-08-06T21:07:02;16.60;99.90
8988;DHT22;4529;51.360;12.474;2023-08-06T21:12:06;16.60;99.90
8988;DHT22;4529;51.360;12.474;2023-08-06T21:17:09;16.50;99.90
8988;DHT22;4529;51.360;12.474;2023-08-06T21:22:13;16.50;99.90
8988;DHT22;4529;51.360;12.474;2023-08-06T21:27:16;16.50;99.90
8988;DHT22;4529;51.360;12.474;2023-08-06T21:32:19;16.50;99.90
8988;DHT22;4529;51.360;12.474;2023-08-06T21:37:23;16.50;99.90
8988;DHT22;4529;51.360;12.474;2023-08-06T21:42:26;16.50;99.90
8988;DHT22;4529;51.360;12.474;2023-08-06T21:47:30;16.50;99.90
8988;DHT22;4529;51.360;12.474;2023-08-06T21:52:33;16.50;99.90
8988;DHT22;4529;51.360;12.474;2023-08-06T21:57:37;16.40;99.90
8988;DHT22;4529;51.360;12.474;2023-08-06T22:02:40;16.50;99.90
8988;DHT22;4529;51.360;12.474;2023-08-06T22:07:44;16.50;99.90
8988;DHT22;4529;51.360;12.474;2023-08-06T22:12:47;16.40;99.90
8988;DHT22;4529;51.360;12.474;2023-08-06T22:17:51;16.50;99.90
8988;DHT22;4529;51.360;12.474;2023-08-06T22:22:54;16.50;99.90
8988;DHT22;4529;51.360;12.474;2023-08-06T22:27:58;16.50;99.90
8988;DHT22;4529;51.360;12.474;2023-08-06T22:33:01;16.50;99.90
8988;DHT22;4529;51.360;12.474;2023-08-06T22:38:05;16.50;99.90
8988;DHT22;4529;51.360;12.474;2023-08-06T22:43:08;16.50;99.90
8988;DHT22;4529;51.360;12.474;2023-08-06T22:48:12;16.50;99.90
8988;DHT22;4529;51.360;12.474;2023-08-06T22:53:16;16.40;99.90
8988;DHT22;4529;51.360;12.474;2023-08-06T22:58:21;16.50;99.90
8988;DHT22;4529;51.360;12.474;2023-08-06T23:03:36;16.40;99.90
8988;DHT22;4529;51.360;12.474;2023-08-06T23:08:40;16.40;99.90
8988;DHT22;4529;51.360;12.474;2023-08-06T23:13:44;16.40;99.90
8988;DHT22;4529;51.360;12.474;2023-08-06T23:18:50;16.30;99.90
8988;DHT22;4529;51.360;12.474;2023-08-06T23:23:53;16.30;99.90
8988;DHT22;4529;51.360;12.474;2023-08-06T23:28:57;16.40;99.90
8988;DHT22;4529;51.360;12.474;2023-08-06T23:34:00;16.30;99.90
8988;DHT22;4529;51.360;12.474;2023-08-06T23:39:04;16.30;99.90
8988;DHT22;4529;51.360;12.474;2023-08-06T23:44:08;16.30;99.90
8988;DHT22;4529;51.360;12.474;2023-08-06T23:49:12;16.40;99.90
8988;DHT22;4529;51.360;12.474;2023-08-06T23:54:16;16.30;99.90
8988;DHT22;4529;51.360;12.474;2023-08-06T23:59:20;16.40;99.90
